sensor_id;sensor_type;location;lat;lon;timestamp;P1;durP1;ratioP1;P2;durP2;ratioP2
22068;SDS011;13887;57.196;-2.100;2024-02-15T00:01:21;15.60;;;15.00;;
22068;SDS011;13887;57.196;-2.100;2024-02-15T00:03:49;15.47;;;14.97;;
22068;SDS011;13887;57.196;-2.100;2024-02-15T00:06:17;15.40;;;14.90;;
22068;SDS011;13887;57.196;-2.100;2024-02-15T00:08:44;16.13;;;15.53;;
22068;SDS011;13887;57.196;-2.100;2024-02-15T00:11:12;15.90;;;15.30;;
22068;SDS011;13887;57.196;-2.100;2024-02-15T00:13:40;15.70;;;15.10;;
22068;SDS011;13887;57.196;-2.100;2024-02-15T00:16:07;15.80;;;15.20;;
22068;SDS011;13887;57.196;-2.100;2024-02-15T00:18:35;16.27;;;15.67;;
22068;SDS011;13887;57.196;-2.100;2024-02-15T00:21:02;15.53;;;14.93;;
22068;SDS011;13887;57.196;-2.100;2024-02-15T00:23:31;15.63;;;15.03;;
22068;SDS011;13887;57.196;-2.100;2024-02-15T00:25:59;14.90;;;14.40;;
22068;SDS011;13887;57.196;-2.100;2024-02-15T00:28:27;15.10;;;14.60;;
22068;SDS011;13887;57.196;-2.100;2024-02-15T00:30:54;15.30;;;14.73;;
22068;SDS011;13887;57.196;-2.100;2024-02-15T00:33:21;15.37;;;14.80;;
22068;SDS011;13887;57.196;-2.100;2024-02-15T00:35:49;15.00;;;14.50;;
22068;SDS011;13887;57.196;-2.100;2024-02-15T00:38:17;15.00;;;14.50;;
22068;SDS011;13887;57.196;-2.100;2024-02-15T00:40:44;15.00;;;14.50;;
22068;SDS011;13887;57.196;-2.100;2024-02-15T00:43:12;15.27;;;14.77;;
22068;SDS011;13887;57.196;-2.100;2024-02-15T00:45:39;15.47;;;14.90;;
22068;SDS011;13887;57.196;-2.100;2024-02-15T00:48:07;15.20;;;14.70;;
22068;SDS011;13887;57.196;-2.100;2024-02-15T00:50:35;14.90;;;14.40;;
22068;SDS011;13887;57.196;-2.100;2024-02-15T00:53:02;15.50;;;14.90;;
22068;SDS011;13887;57.196;-2.100;2024-02-15T00:55:30;15.50;;;14.90;;
22068;SDS011;13887;57.196;-2.100;2024-02-15T00:57:57;15.10;;;14.60;;
22068;SDS011;13887;57.196;-2.100;2024-02-15T01:00:24;15.90;;;15.30;;
22068;SDS011;13887;57.196;-2.100;2024-02-15T01:02:52;15.63;;;15.03;;
22068;SDS011;13887;57.196;-2.100;2024-02-15T01:05:20;15.97;;;15.37;;
22068;SDS011;13887;57.196;-2.100;2024-02-15T01:07:48;15.23;;;14.73;;
22068;SDS011;13887;57.196;-2.100;2024-02-15T01:10:15;15.67;;;15.07;;
22068;SDS011;13887;57.196;-2.100;2024-02-15T01:12:43;15.90;;;15.30;;
22068;SDS011;13887;57.196;-2.100;2024-02-15T01:15:10;16.20;;;15.60;;
22068;SDS011;13887;57.196;-2.100;2024-02-15T01:17:38;16.03;;;15.43;;
22068;SDS011;13887;57.196;-2.100;2024-02-15T01:20:05;16.63;;;16.03;;
22068;SDS011;13887;57.196;-2.100;2024-02-15T01:22:34;16.60;;;16.00;;
22068;SDS011;13887;57.196;-2.100;2024-02-15T01:25:02;15.97;;;15.37;;
22068;SDS011;13887;57.196;-2.100;2024-02-15T01:27:29;16.20;;;15.60;;
22068;SDS011;13887;57.196;-2.100;2024-02-15T01:29:57;16.00;;;15.40;;
22068;SDS011;13887;57.196;-2.100;2024-02-15T01:32:24;15.93;;;15.33;;
22068;SDS011;13887;57.196;-2.100;2024-02-15T01:34:54;16.60;;;16.00;;
22068;SDS011;13887;57.196;-2.100;2024-02-15T01:37:22;18.63;;;17.93;;
22068;SDS011;13887;57.196;-2.100;2024-02-15T01:39:50;16.13;;;15.53;;
22068;SDS011;13887;57.196;-2.100;2024-02-15T01:42:18;15.93;;;15.33;;
22068;SDS011;13887;57.196;-2.100;2024-02-15T01:44:45;16.20;;;15.60;;
22068;SDS011;13887;57.196;-2.100;2024-02-15T01:47:14;16.03;;;15.43;;
22068;SDS011;13887;57.196;-2.100;2024-02-15T01:49:46;16.30;;;15.70;;
22068;SDS011;13887;57.196;-2.100;2024-02-15T01:52:16;16.10;;;15.50;;
22068;SDS011;13887;57.196;-2.100;2024-02-15T01:54:44;16.87;;;16.27;;
22068;SDS011;13887;57.196;-2.100;2024-02-15T01:57:12;16.47;;;15.87;;
22068;SDS011;13887;57.196;-2.100;2024-02-15T01:59:40;15.90;;;15.30;;
22068;SDS011;13887;57.196;-2.100;2024-02-15T02:02:08;16.23;;;15.63;;
22068;SDS011;13887;57.196;-2.100;2024-02-15T02:04:39;15.70;;;15.10;;
22068;SDS011;13887;57.196;-2.100;2024-02-15T02:07:08;15.80;;;15.20;;
22068;SDS011;13887;57.196;-2.100;2024-02-15T02:09:36;15.93;;;15.33;;
22068;SDS011;13887;57.196;-2.100;2024-02-15T02:12:04;15.97;;;15.37;;
22068;SDS011;13887;57.196;-2.100;2024-02-15T02:14:32;16.17;;;15.57;;
22068;SDS011;13887;57.196;-2.100;2024-02-15T02:17:12;16.20;;;15.60;;
22068;SDS011;13887;57.196;-2.100;2024-02-15T02:19:41;15.93;;;15.33;;
22068;SDS011;13887;57.196;-2.100;2024-02-15T02:22:09;15.67;;;15.07;;
22068;SDS011;13887;57.196;-2.100;2024-02-15T02:27:32;15.30;;;14.80;;
22068;SDS011;13887;57.196;-2.100;2024-02-15T02:30:00;14.77;;;14.27;;
22068;SDS011;13887;57.196;-2.100;2024-02-15T02:32:27;15.17;;;14.67;;
22068;SDS011;13887;57.196;-2.100;2024-02-15T02:34:56;15.07;;;14.57;;
22068;SDS011;13887;57.196;-2.100;2024-02-15T02:37:24;15.43;;;14.93;;
22068;SDS011;13887;57.196;-2.100;2024-02-15T02:39:51;15.30;;;14.80;;
22068;SDS011;13887;57.196;-2.100;2024-02-15T02:42:19;15.20;;;14.70;;
22068;SDS011;13887;57.196;-2.100;2024-02-15T02:44:47;14.83;;;14.33;;
22068;SDS011;13887;57.196;-2.100;2024-02-15T02:47:15;15.43;;;14.93;;
22068;SDS011;13887;57.196;-2.100;2024-02-15T02:49:43;15.53;;;14.93;;
22068;SDS011;13887;57.196;-2.100;2024-02-15T02:52:11;15.70;;;15.10;;
22068;SDS011;13887;57.196;-2.100;2024-02-15T02:54:38;15.27;;;14.77;;
22068;SDS011;13887;57.196;-2.100;2024-02-15T02:57:05;15.77;;;15.17;;
22068;SDS011;13887;57.196;-2.100;2024-02-15T02:59:34;15.33;;;14.83;;
22068;SDS011;13887;57.196;-2.100;2024-02-15T03:02:02;15.40;;;14.90;;
22068;SDS011;13887;57.196;-2.100;2024-02-15T03:04:31;15.77;;;15.17;;
22068;SDS011;13887;57.196;-2.100;2024-02-15T03:06:59;15.07;;;14.57;;
22068;SDS011;13887;57.196;-2.100;2024-02-15T03:09:27;15.20;;;14.70;;
22068;SDS011;13887;57.196;-2.100;2024-02-15T03:11:56;15.60;;;15.00;;
22068;SDS011;13887;57.196;-2.100;2024-02-15T03:14:23;19.00;;;18.30;;
22068;SDS011;13887;57.196;-2.100;2024-02-15T03:16:52;12.07;;;11.67;;
22068;SDS011;13887;57.196;-2.100;2024-02-15T03:19:21;15.90;;;15.30;;
22068;SDS011;13887;57.196;-2.100;2024-02-15T03:21:49;15.10;;;14.60;;
22068;SDS011;13887;57.196;-2.100;2024-02-15T03:24:17;16.13;;;15.53;;
22068;SDS011;13887;57.196;-2.100;2024-02-15T03:26:44;15.27;;;14.77;;
22068;SDS011;13887;57.196;-2.100;2024-02-15T03:29:12;15.07;;;14.57;;
22068;SDS011;13887;57.196;-2.100;2024-02-15T03:31:39;15.23;;;14.73;;
22068;SDS011;13887;57.196;-2.100;2024-02-15T03:34:06;15.30;;;14.80;;
22068;SDS011;13887;57.196;-2.100;2024-02-15T03:36:34;15.17;;;14.67;;
22068;SDS011;13887;57.196;-2.100;2024-02-15T03:39:01;15.97;;;15.37;;
22068;SDS011;13887;57.196;-2.100;2024-02-15T03:41:28;15.63;;;15.03;;
22068;SDS011;13887;57.196;-2.100;2024-02-15T03:44:00;14.73;;;14.23;;
22068;SDS011;13887;57.196;-2.100;2024-02-15T03:46:27;15.30;;;14.80;;
22068;SDS011;13887;57.196;-2.100;2024-02-15T03:48:54;15.90;;;15.30;;
22068;SDS011;13887;57.196;-2.100;2024-02-15T03:51:24;15.53;;;14.93;;
22068;SDS011;13887;57.196;-2.100;2024-02-15T03:53:51;15.43;;;14.93;;
22068;SDS011;13887;57.196;-2.100;2024-02-15T03:56:19;15.17;;;14.67;;
22068;SDS011;13887;57.196;-2.100;2024-02-15T03:58:48;15.93;;;15.33;;
22068;SDS011;13887;57.196;-2.100;2024-02-15T04:01:18;15.30;;;14.80;;
22068;SDS011;13887;57.196;-2.100;2024-02-15T04:03:45;15.43;;;14.93;;
22068;SDS011;13887;57.196;-2.100;2024-02-15T04:06:14;15.37;;;14.83;;
22068;SDS011;13887;57.196;-2.100;2024-02-15T04:08:42;15.73;;;15.13;;
22068;SDS011;13887;57.196;-2.100;2024-02-15T04:11:09;15.63;;;15.03;;
22068;SDS011;13887;57.196;-2.100;2024-02-15T04:13:37;15.67;;;15.07;;
22068;SDS011;13887;57.196;-2.100;2024-02-15T04:16:04;15.13;;;14.60;;
22068;SDS011;13887;57.196;-2.100;2024-02-15T04:18:31;15.40;;;14.80;;
22068;SDS011;13887;57.196;-2.100;2024-02-15T04:20:59;15.20;;;14.70;;
22068;SDS011;13887;57.196;-2.100;2024-02-15T04:23:27;15.53;;;14.93;;
22068;SDS011;13887;57.196;-2.100;2024-02-15T04:25:54;15.63;;;15.03;;
22068;SDS011;13887;57.196;-2.100;2024-02-15T04:28:21;15.50;;;14.90;;
22068;SDS011;13887;57.196;-2.100;2024-02-15T04:30:49;15.87;;;15.27;;
22068;SDS011;13887;57.196;-2.100;2024-02-15T04:33:16;15.67;;;15.07;;
22068;SDS011;13887;57.196;-2.100;2024-02-15T04:35:44;15.60;;;15.00;;
22068;SDS011;13887;57.196;-2.100;2024-02-15T04:38:12;15.43;;;14.87;;
22068;SDS011;13887;57.196;-2.100;2024-02-15T04:40:39;15.67;;;15.07;;
22068;SDS011;13887;57.196;-2.100;2024-02-15T04:43:06;16.00;;;15.40;;
22068;SDS011;13887;57.196;-2.100;2024-02-15T04:45:35;15.90;;;15.30;;
22068;SDS011;13887;57.196;-2.100;2024-02-15T04:48:04;16.00;;;15.40;;
22068;SDS011;13887;57.196;-2.100;2024-02-15T04:50:34;15.83;;;15.23;;
22068;SDS011;13887;57.196;-2.100;2024-02-15T04:53:01;15.67;;;15.07;;
22068;SDS011;13887;57.196;-2.100;2024-02-15T04:55:28;16.27;;;15.67;;
22068;SDS011;13887;57.196;-2.100;2024-02-15T04:57:58;15.80;;;15.20;;
22068;SDS011;13887;57.196;-2.100;2024-02-15T05:00:26;15.97;;;15.37;;
22068;SDS011;13887;57.196;-2.100;2024-02-15T05:02:54;16.03;;;15.43;;
22068;SDS011;13887;57.196;-2.100;2024-02-15T05:05:21;15.70;;;15.10;;
22068;SDS011;13887;57.196;-2.100;2024-02-15T05:07:50;16.17;;;15.57;;
22068;SDS011;13887;57.196;-2.100;2024-02-15T05:10:17;16.60;;;16.00;;
22068;SDS011;13887;57.196;-2.100;2024-02-15T05:12:45;16.57;;;15.97;;
22068;SDS011;13887;57.196;-2.100;2024-02-15T05:15:15;16.60;;;16.00;;
22068;SDS011;13887;57.196;-2.100;2024-02-15T05:17:45;16.50;;;15.90;;
22068;SDS011;13887;57.196;-2.100;2024-02-15T05:20:12;16.10;;;15.50;;
22068;SDS011;13887;57.196;-2.100;2024-02-15T05:22:41;15.93;;;15.33;;
22068;SDS011;13887;57.196;-2.100;2024-02-15T05:25:17;15.93;;;15.33;;
22068;SDS011;13887;57.196;-2.100;2024-02-15T05:27:52;16.70;;;16.10;;
22068;SDS011;13887;57.196;-2.100;2024-02-15T05:30:24;16.70;;;16.10;;
22068;SDS011;13887;57.196;-2.100;2024-02-15T05:32:53;16.60;;;16.00;;
22068;SDS011;13887;57.196;-2.100;2024-02-15T05:35:21;15.93;;;15.33;;
22068;SDS011;13887;57.196;-2.100;2024-02-15T05:37:49;16.73;;;16.13;;
22068;SDS011;13887;57.196;-2.100;2024-02-15T05:40:20;16.37;;;15.77;;
22068;SDS011;13887;57.196;-2.100;2024-02-15T05:42:47;16.17;;;15.57;;
22068;SDS011;13887;57.196;-2.100;2024-02-15T05:45:35;16.70;;;16.10;;
22068;SDS011;13887;57.196;-2.100;2024-02-15T05:48:03;16.27;;;15.67;;
22068;SDS011;13887;57.196;-2.100;2024-02-15T05:50:34;16.30;;;15.70;;
22068;SDS011;13887;57.196;-2.100;2024-02-15T05:53:02;16.50;;;15.90;;
22068;SDS011;13887;57.196;-2.100;2024-02-15T05:55:30;16.33;;;15.73;;
22068;SDS011;13887;57.196;-2.100;2024-02-15T05:58:01;16.97;;;16.37;;
22068;SDS011;13887;57.196;-2.100;2024-02-15T06:00:29;16.60;;;16.00;;
22068;SDS011;13887;57.196;-2.100;2024-02-15T06:02:57;16.70;;;16.10;;
22068;SDS011;13887;57.196;-2.100;2024-02-15T06:05:25;16.40;;;15.80;;
22068;SDS011;13887;57.196;-2.100;2024-02-15T06:07:53;16.70;;;16.10;;
22068;SDS011;13887;57.196;-2.100;2024-02-15T06:10:20;17.07;;;16.47;;
22068;SDS011;13887;57.196;-2.100;2024-02-15T06:12:48;16.77;;;16.17;;
22068;SDS011;13887;57.196;-2.100;2024-02-15T06:15:15;16.93;;;16.33;;
22068;SDS011;13887;57.196;-2.100;2024-02-15T06:17:44;16.50;;;15.90;;
22068;SDS011;13887;57.196;-2.100;2024-02-15T06:20:12;16.33;;;15.73;;
22068;SDS011;13887;57.196;-2.100;2024-02-15T06:22:50;16.60;;;16.00;;
22068;SDS011;13887;57.196;-2.100;2024-02-15T06:25:18;16.70;;;16.10;;
22068;SDS011;13887;57.196;-2.100;2024-02-15T06:27:49;17.47;;;16.77;;
22068;SDS011;13887;57.196;-2.100;2024-02-15T06:30:18;17.00;;;16.40;;
22068;SDS011;13887;57.196;-2.100;2024-02-15T06:33:08;17.03;;;16.43;;
22068;SDS011;13887;57.196;-2.100;2024-02-15T06:35:55;16.67;;;16.07;;
22068;SDS011;13887;57.196;-2.100;2024-02-15T06:38:41;17.07;;;16.47;;
22068;SDS011;13887;57.196;-2.100;2024-02-15T06:41:27;17.53;;;16.83;;
22068;SDS011;13887;57.196;-2.100;2024-02-15T06:43:55;16.50;;;15.90;;
22068;SDS011;13887;57.196;-2.100;2024-02-15T06:46:24;16.07;;;15.47;;
22068;SDS011;13887;57.196;-2.100;2024-02-15T06:48:51;16.00;;;15.40;;
22068;SDS011;13887;57.196;-2.100;2024-02-15T06:51:19;16.17;;;15.57;;
22068;SDS011;13887;57.196;-2.100;2024-02-15T06:53:47;16.67;;;16.07;;
22068;SDS011;13887;57.196;-2.100;2024-02-15T06:56:14;17.07;;;16.47;;
22068;SDS011;13887;57.196;-2.100;2024-02-15T06:58:41;16.43;;;15.83;;
22068;SDS011;13887;57.196;-2.100;2024-02-15T07:01:09;16.57;;;15.97;;
22068;SDS011;13887;57.196;-2.100;2024-02-15T07:03:36;17.00;;;16.40;;
22068;SDS011;13887;57.196;-2.100;2024-02-15T07:06:04;16.93;;;16.33;;
22068;SDS011;13887;57.196;-2.100;2024-02-15T07:08:31;17.37;;;16.77;;
22068;SDS011;13887;57.196;-2.100;2024-02-15T07:10:59;17.47;;;16.80;;
22068;SDS011;13887;57.196;-2.100;2024-02-15T07:13:26;17.20;;;16.60;;
22068;SDS011;13887;57.196;-2.100;2024-02-15T07:15:54;17.50;;;16.80;;
22068;SDS011;13887;57.196;-2.100;2024-02-15T07:18:21;17.50;;;16.83;;
22068;SDS011;13887;57.196;-2.100;2024-02-15T07:20:55;18.47;;;17.77;;
22068;SDS011;13887;57.196;-2.100;2024-02-15T07:23:26;17.87;;;17.17;;
22068;SDS011;13887;57.196;-2.100;2024-02-15T07:25:54;18.53;;;17.83;;
22068;SDS011;13887;57.196;-2.100;2024-02-15T07:28:21;18.20;;;17.50;;
22068;SDS011;13887;57.196;-2.100;2024-02-15T07:30:51;17.90;;;17.20;;
22068;SDS011;13887;57.196;-2.100;2024-02-15T07:33:22;17.27;;;16.67;;
22068;SDS011;13887;57.196;-2.100;2024-02-15T07:35:51;17.90;;;17.20;;
22068;SDS011;13887;57.196;-2.100;2024-02-15T07:38:18;17.73;;;17.13;;
22068;SDS011;13887;57.196;-2.100;2024-02-15T07:40:46;18.10;;;17.40;;
22068;SDS011;13887;57.196;-2.100;2024-02-15T07:43:13;17.83;;;17.13;;
22068;SDS011;13887;57.196;-2.100;2024-02-15T07:45:41;17.90;;;17.20;;
22068;SDS011;13887;57.196;-2.100;2024-02-15T07:48:09;18.27;;;17.57;;
22068;SDS011;13887;57.196;-2.100;2024-02-15T07:50:37;18.30;;;17.60;;
22068;SDS011;13887;57.196;-2.100;2024-02-15T07:53:04;18.30;;;17.60;;
22068;SDS011;13887;57.196;-2.100;2024-02-15T07:55:37;18.17;;;17.47;;
22068;SDS011;13887;57.196;-2.100;2024-02-15T07:58:04;18.27;;;17.57;;
22068;SDS011;13887;57.196;-2.100;2024-02-15T08:00:33;17.70;;;17.10;;
22068;SDS011;13887;57.196;-2.100;2024-02-15T08:03:00;17.60;;;17.00;;
22068;SDS011;13887;57.196;-2.100;2024-02-15T08:05:27;17.30;;;16.70;;
22068;SDS011;13887;57.196;-2.100;2024-02-15T08:07:55;17.60;;;17.00;;
22068;SDS011;13887;57.196;-2.100;2024-02-15T08:10:25;18.03;;;17.33;;
22068;SDS011;13887;57.196;-2.100;2024-02-15T08:12:54;17.70;;;17.03;;
22068;SDS011;13887;57.196;-2.100;2024-02-15T08:15:25;18.13;;;17.43;;
22068;SDS011;13887;57.196;-2.100;2024-02-15T08:17:55;18.37;;;17.67;;
22068;SDS011;13887;57.196;-2.100;2024-02-15T08:20:23;18.90;;;18.20;;
22068;SDS011;13887;57.196;-2.100;2024-02-15T08:22:50;18.30;;;17.60;;
22068;SDS011;13887;57.196;-2.100;2024-02-15T08:25:17;18.07;;;17.37;;
22068;SDS011;13887;57.196;-2.100;2024-02-15T08:27:48;18.40;;;17.70;;
22068;SDS011;13887;57.196;-2.100;2024-02-15T08:30:18;17.80;;;17.20;;
22068;SDS011;13887;57.196;-2.100;2024-02-15T08:32:50;18.00;;;17.30;;
22068;SDS011;13887;57.196;-2.100;2024-02-15T08:35:20;17.47;;;16.87;;
22068;SDS011;13887;57.196;-2.100;2024-02-15T08:37:48;17.13;;;16.53;;
22068;SDS011;13887;57.196;-2.100;2024-02-15T08:40:18;17.17;;;16.57;;
22068;SDS011;13887;57.196;-2.100;2024-02-15T08:42:52;16.93;;;16.33;;
22068;SDS011;13887;57.196;-2.100;2024-02-15T08:45:19;17.87;;;17.17;;
22068;SDS011;13887;57.196;-2.100;2024-02-15T08:47:47;17.47;;;16.87;;
22068;SDS011;13887;57.196;-2.100;2024-02-15T08:50:17;17.27;;;16.67;;
22068;SDS011;13887;57.196;-2.100;2024-02-15T08:52:44;17.70;;;17.07;;
22068;SDS011;13887;57.196;-2.100;2024-02-15T08:55:13;17.47;;;16.87;;
22068;SDS011;13887;57.196;-2.100;2024-02-15T08:57:41;17.90;;;17.20;;
22068;SDS011;13887;57.196;-2.100;2024-02-15T09:00:11;17.97;;;17.27;;
22068;SDS011;13887;57.196;-2.100;2024-02-15T09:02:44;18.30;;;17.60;;
22068;SDS011;13887;57.196;-2.100;2024-02-15T09:05:14;17.40;;;16.80;;
22068;SDS011;13887;57.196;-2.100;2024-02-15T09:07:42;17.90;;;17.20;;
22068;SDS011;13887;57.196;-2.100;2024-02-15T09:10:10;17.40;;;16.80;;
22068;SDS011;13887;57.196;-2.100;2024-02-15T09:12:39;17.00;;;16.40;;
22068;SDS011;13887;57.196;-2.100;2024-02-15T09:15:08;17.33;;;16.73;;
22068;SDS011;13887;57.196;-2.100;2024-02-15T09:17:36;18.00;;;17.30;;
22068;SDS011;13887;57.196;-2.100;2024-02-15T09:20:08;17.60;;;17.00;;
22068;SDS011;13887;57.196;-2.100;2024-02-15T09:25:10;17.23;;;16.63;;
22068;SDS011;13887;57.196;-2.100;2024-02-15T09:27:40;17.93;;;17.23;;
22068;SDS011;13887;57.196;-2.100;2024-02-15T09:30:08;17.10;;;16.50;;
22068;SDS011;13887;57.196;-2.100;2024-02-15T09:32:39;17.17;;;16.57;;
22068;SDS011;13887;57.196;-2.100;2024-02-15T09:35:07;17.27;;;16.67;;
22068;SDS011;13887;57.196;-2.100;2024-02-15T09:37:36;17.37;;;16.77;;
22068;SDS011;13887;57.196;-2.100;2024-02-15T09:40:09;17.50;;;16.90;;
22068;SDS011;13887;57.196;-2.100;2024-02-15T09:42:38;17.57;;;16.97;;
22068;SDS011;13887;57.196;-2.100;2024-02-15T09:45:07;17.40;;;16.80;;
22068;SDS011;13887;57.196;-2.100;2024-02-15T09:47:39;17.57;;;16.97;;
22068;SDS011;13887;57.196;-2.100;2024-02-15T09:50:09;17.67;;;17.07;;
22068;SDS011;13887;57.196;-2.100;2024-02-15T09:52:38;17.70;;;17.10;;
22068;SDS011;13887;57.196;-2.100;2024-02-15T09:55:07;17.17;;;16.57;;
22068;SDS011;13887;57.196;-2.100;2024-02-15T09:57:43;16.60;;;16.00;;
22068;SDS011;13887;57.196;-2.100;2024-02-15T10:00:13;17.20;;;16.60;;
22068;SDS011;13887;57.196;-2.100;2024-02-15T10:02:43;17.30;;;16.70;;
22068;SDS011;13887;57.196;-2.100;2024-02-15T10:05:12;17.57;;;16.97;;
22068;SDS011;13887;57.196;-2.100;2024-02-15T10:07:40;18.00;;;17.40;;
22068;SDS011;13887;57.196;-2.100;2024-02-15T10:12:55;17.90;;;17.30;;
22068;SDS011;13887;57.196;-2.100;2024-02-15T10:18:04;18.03;;;17.33;;
22068;SDS011;13887;57.196;-2.100;2024-02-15T10:20:36;17.60;;;17.00;;
22068;SDS011;13887;57.196;-2.100;2024-02-15T10:23:12;17.57;;;16.97;;
22068;SDS011;13887;57.196;-2.100;2024-02-15T10:25:45;17.27;;;16.67;;
22068;SDS011;13887;57.196;-2.100;2024-02-15T10:28:14;17.10;;;16.50;;
22068;SDS011;13887;57.196;-2.100;2024-02-15T10:30:50;18.17;;;17.47;;
22068;SDS011;13887;57.196;-2.100;2024-02-15T10:33:26;18.47;;;17.77;;
22068;SDS011;13887;57.196;-2.100;2024-02-15T10:36:04;18.03;;;17.43;;
22068;SDS011;13887;57.196;-2.100;2024-02-15T10:38:34;17.70;;;17.10;;
22068;SDS011;13887;57.196;-2.100;2024-02-15T10:41:03;17.60;;;17.00;;
22068;SDS011;13887;57.196;-2.100;2024-02-15T10:43:35;17.80;;;17.20;;
22068;SDS011;13887;57.196;-2.100;2024-02-15T10:46:05;17.90;;;17.30;;
22068;SDS011;13887;57.196;-2.100;2024-02-15T10:48:34;18.27;;;17.57;;
22068;SDS011;13887;57.196;-2.100;2024-02-15T10:51:03;18.10;;;17.40;;
22068;SDS011;13887;57.196;-2.100;2024-02-15T10:53:36;17.93;;;17.30;;
22068;SDS011;13887;57.196;-2.100;2024-02-15T10:56:14;18.33;;;17.63;;
22068;SDS011;13887;57.196;-2.100;2024-02-15T10:58:47;17.87;;;17.27;;
22068;SDS011;13887;57.196;-2.100;2024-02-15T11:01:25;18.23;;;17.53;;
22068;SDS011;13887;57.196;-2.100;2024-02-15T11:03:59;18.03;;;17.37;;
22068;SDS011;13887;57.196;-2.100;2024-02-15T11:06:27;18.13;;;17.43;;
22068;SDS011;13887;57.196;-2.100;2024-02-15T11:08:57;17.73;;;17.13;;
22068;SDS011;13887;57.196;-2.100;2024-02-15T11:11:26;18.57;;;17.87;;
22068;SDS011;13887;57.196;-2.100;2024-02-15T11:14:38;17.77;;;17.17;;
22068;SDS011;13887;57.196;-2.100;2024-02-15T11:16:56;17.20;;;16.60;;
22068;SDS011;13887;57.196;-2.100;2024-02-15T11:22:10;18.23;;;17.53;;
22068;SDS011;13887;57.196;-2.100;2024-02-15T11:24:48;17.87;;;17.27;;
22068;SDS011;13887;57.196;-2.100;2024-02-15T11:27:23;17.73;;;17.13;;
22068;SDS011;13887;57.196;-2.100;2024-02-15T11:40:26;16.90;;;16.30;;
22068;SDS011;13887;57.196;-2.100;2024-02-15T11:42:56;17.03;;;16.43;;
22068;SDS011;13887;57.196;-2.100;2024-02-15T11:45:28;16.97;;;16.37;;
22068;SDS011;13887;57.196;-2.100;2024-02-15T11:48:09;17.00;;;16.40;;
22068;SDS011;13887;57.196;-2.100;2024-02-15T11:50:39;16.97;;;16.37;;
22068;SDS011;13887;57.196;-2.100;2024-02-15T11:53:07;16.70;;;16.10;;
22068;SDS011;13887;57.196;-2.100;2024-02-15T11:55:39;17.03;;;16.43;;
22068;SDS011;13887;57.196;-2.100;2024-02-15T11:58:08;16.70;;;16.10;;
22068;SDS011;13887;57.196;-2.100;2024-02-15T12:00:38;16.30;;;15.70;;
22068;SDS011;13887;57.196;-2.100;2024-02-15T12:03:25;16.30;;;15.70;;
22068;SDS011;13887;57.196;-2.100;2024-02-15T12:06:29;16.40;;;15.80;;
22068;SDS011;13887;57.196;-2.100;2024-02-15T12:09:17;17.07;;;16.47;;
22068;SDS011;13887;57.196;-2.100;2024-02-15T12:12:05;16.70;;;16.10;;
22068;SDS011;13887;57.196;-2.100;2024-02-15T12:15:01;16.20;;;15.60;;
22068;SDS011;13887;57.196;-2.100;2024-02-15T12:17:48;15.67;;;15.17;;
22068;SDS011;13887;57.196;-2.100;2024-02-15T12:20:35;16.13;;;15.53;;
22068;SDS011;13887;57.196;-2.100;2024-02-15T12:23:03;16.10;;;15.50;;
22068;SDS011;13887;57.196;-2.100;2024-02-15T12:25:34;16.67;;;16.07;;
22068;SDS011;13887;57.196;-2.100;2024-02-15T12:28:02;16.47;;;15.87;;
22068;SDS011;13887;57.196;-2.100;2024-02-15T12:30:33;16.03;;;15.43;;
22068;SDS011;13887;57.196;-2.100;2024-02-15T12:33:11;16.27;;;15.67;;
22068;SDS011;13887;57.196;-2.100;2024-02-15T12:35:40;16.27;;;15.67;;
22068;SDS011;13887;57.196;-2.100;2024-02-15T12:38:09;16.37;;;15.77;;
22068;SDS011;13887;57.196;-2.100;2024-02-15T12:40:42;16.07;;;15.47;;
22068;SDS011;13887;57.196;-2.100;2024-02-15T12:43:15;16.50;;;15.90;;
22068;SDS011;13887;57.196;-2.100;2024-02-15T12:45:42;16.53;;;15.93;;
22068;SDS011;13887;57.196;-2.100;2024-02-15T12:48:10;16.30;;;15.70;;
22068;SDS011;13887;57.196;-2.100;2024-02-15T12:50:39;16.10;;;15.50;;
22068;SDS011;13887;57.196;-2.100;2024-02-15T12:53:06;16.43;;;15.83;;
22068;SDS011;13887;57.196;-2.100;2024-02-15T12:55:35;16.53;;;15.93;;
22068;SDS011;13887;57.196;-2.100;2024-02-15T12:58:05;16.67;;;16.07;;
22068;SDS011;13887;57.196;-2.100;2024-02-15T13:00:40;16.50;;;15.90;;
22068;SDS011;13887;57.196;-2.100;2024-02-15T13:03:08;15.93;;;15.33;;
22068;SDS011;13887;57.196;-2.100;2024-02-15T13:05:41;16.10;;;15.50;;
22068;SDS011;13887;57.196;-2.100;2024-02-15T13:08:10;16.00;;;15.40;;
22068;SDS011;13887;57.196;-2.100;2024-02-15T13:10:41;16.23;;;15.63;;
22068;SDS011;13887;57.196;-2.100;2024-02-15T13:13:09;16.23;;;15.63;;
22068;SDS011;13887;57.196;-2.100;2024-02-15T13:15:37;16.10;;;15.50;;
22068;SDS011;13887;57.196;-2.100;2024-02-15T13:18:05;15.60;;;15.10;;
22068;SDS011;13887;57.196;-2.100;2024-02-15T13:20:37;16.27;;;15.67;;
22068;SDS011;13887;57.196;-2.100;2024-02-15T13:23:06;15.80;;;15.20;;
22068;SDS011;13887;57.196;-2.100;2024-02-15T13:25:36;16.13;;;15.53;;
22068;SDS011;13887;57.196;-2.100;2024-02-15T13:28:07;15.57;;;15.07;;
22068;SDS011;13887;57.196;-2.100;2024-02-15T13:30:37;15.77;;;15.27;;
22068;SDS011;13887;57.196;-2.100;2024-02-15T13:33:04;15.70;;;15.20;;
22068;SDS011;13887;57.196;-2.100;2024-02-15T13:35:33;15.93;;;15.33;;
22068;SDS011;13887;57.196;-2.100;2024-02-15T13:38:00;15.87;;;15.27;;
22068;SDS011;13887;57.196;-2.100;2024-02-15T13:40:29;16.10;;;15.50;;
22068;SDS011;13887;57.196;-2.100;2024-02-15T13:42:58;15.87;;;15.27;;
22068;SDS011;13887;57.196;-2.100;2024-02-15T13:45:30;15.87;;;15.30;;
22068;SDS011;13887;57.196;-2.100;2024-02-15T13:48:01;15.50;;;15.00;;
22068;SDS011;13887;57.196;-2.100;2024-02-15T13:50:29;16.10;;;15.50;;
22068;SDS011;13887;57.196;-2.100;2024-02-15T13:52:57;15.77;;;15.23;;
22068;SDS011;13887;57.196;-2.100;2024-02-15T13:55:25;15.67;;;15.07;;
22068;SDS011;13887;57.196;-2.100;2024-02-15T13:57:53;16.60;;;16.00;;
22068;SDS011;13887;57.196;-2.100;2024-02-15T14:00:24;16.13;;;15.53;;
22068;SDS011;13887;57.196;-2.100;2024-02-15T14:03:01;16.47;;;15.87;;
22068;SDS011;13887;57.196;-2.100;2024-02-15T14:05:30;15.97;;;15.37;;
22068;SDS011;13887;57.196;-2.100;2024-02-15T14:08:04;16.30;;;15.70;;
22068;SDS011;13887;57.196;-2.100;2024-02-15T14:10:33;16.57;;;15.97;;
22068;SDS011;13887;57.196;-2.100;2024-02-15T14:13:04;16.57;;;15.97;;
22068;SDS011;13887;57.196;-2.100;2024-02-15T14:15:36;16.00;;;15.40;;
22068;SDS011;13887;57.196;-2.100;2024-02-15T14:20:35;16.40;;;15.80;;
22068;SDS011;13887;57.196;-2.100;2024-02-15T14:23:03;16.83;;;16.23;;
22068;SDS011;13887;57.196;-2.100;2024-02-15T14:25:33;16.33;;;15.73;;
22068;SDS011;13887;57.196;-2.100;2024-02-15T14:28:01;16.43;;;15.83;;
22068;SDS011;13887;57.196;-2.100;2024-02-15T14:30:30;16.27;;;15.67;;
22068;SDS011;13887;57.196;-2.100;2024-02-15T14:33:16;16.37;;;15.77;;
22068;SDS011;13887;57.196;-2.100;2024-02-15T14:35:48;16.33;;;15.73;;
22068;SDS011;13887;57.196;-2.100;2024-02-15T14:38:17;15.97;;;15.37;;
22068;SDS011;13887;57.196;-2.100;2024-02-15T14:40:48;16.80;;;16.20;;
22068;SDS011;13887;57.196;-2.100;2024-02-15T14:43:27;16.30;;;15.70;;
22068;SDS011;13887;57.196;-2.100;2024-02-15T14:45:55;16.07;;;15.47;;
22068;SDS011;13887;57.196;-2.100;2024-02-15T14:48:25;16.70;;;16.10;;
22068;SDS011;13887;57.196;-2.100;2024-02-15T14:50:53;16.07;;;15.47;;